Terminal Aerodrome Forecast
Issued by NWS Boston, MA

Home | Current Version | Previous Version | Text Only | Print | Product List | Glossary On
Versions: 1 2 3 4 5 6 7 8 9 10 11 12 13 14 15 16 17 18 19 20 21 22 23
000
FTUS41 KBOX 030808 AAA
TAFBOS
TAF AMD
KBOS 030808Z 0308/0412 35005KT P6SM SCT090 BKN150
     FM030830 36004KT 6SM -RA OVC090
     FM031000 07004KT 5SM -RA BR OVC010
     FM031700 07006KT 5SM BR VCSH OVC040
     FM032300 07005KT 3SM BR VCSH BKN045
     FM040100 07005KT 4SM BR BKN045=

USA.gov is the U.S. government's official web portal to all federal, state and local government web resources and services.